sensor_id;sensor_type;location;lat;lon;timestamp;pressure;altitude;pressure_sealevel;temperature;humidity
14757;BME280;62446;53.214;10.398;2022-08-03T00:02:37;101296.97;;;20.51;46.92
14757;BME280;62446;53.214;10.398;2022-08-03T00:05:40;101290.50;;;20.50;46.70
14757;BME280;62446;53.214;10.398;2022-08-03T00:09:05;101293.28;;;20.50;46.98
14757;BME280;62446;53.214;10.398;2022-08-03T00:12:08;101296.09;;;20.50;46.84
14757;BME280;62446;53.214;10.398;2022-08-03T00:15:14;101289.66;;;20.50;46.89
14757;BME280;62446;53.214;10.398;2022-08-03T00:18:18;101289.38;;;20.52;46.95
14757;BME280;62446;53.214;10.398;2022-08-03T00:21:22;101288.81;;;20.49;46.85
14757;BME280;62446;53.214;10.398;2022-08-03T00:24:26;101286.56;;;20.52;46.60
14757;BME280;62446;53.214;10.398;2022-08-03T00:27:30;101288.81;;;20.49;46.65
14757;BME280;62446;53.214;10.398;2022-08-03T00:30:38;101285.75;;;20.51;46.99
14757;BME280;62446;53.214;10.398;2022-08-03T00:33:43;101288.81;;;20.49;46.62
14757;BME280;62446;53.214;10.398;2022-08-03T00:37:04;101273.69;;;20.50;47.01
14757;BME280;62446;53.214;10.398;2022-08-03T00:40:10;101284.88;;;20.50;46.96
14757;BME280;62446;53.214;10.398;2022-08-03T00:43:14;101280.97;;;20.52;47.08
14757;BME280;62446;53.214;10.398;2022-08-03T00:46:19;101280.97;;;20.52;47.02
14757;BME280;62446;53.214;10.398;2022-08-03T00:49:23;101273.69;;;20.50;46.77
14757;BME280;62446;53.214;10.398;2022-08-03T00:52:27;101278.16;;;20.52;47.02
14757;BME280;62446;53.214;10.398;2022-08-03T00:55:31;101274.53;;;20.51;47.03
14757;BME280;62446;53.214;10.398;2022-08-03T00:58:36;101280.97;;;20.52;46.61
14757;BME280;62446;53.214;10.398;2022-08-03T01:01:41;101272.84;;;20.50;46.88
14757;BME280;62446;53.214;10.398;2022-08-03T01:04:45;101266.41;;;20.49;46.78
14757;BME280;62446;53.214;10.398;2022-08-03T01:07:59;101266.41;;;20.49;46.68
14757;BME280;62446;53.214;10.398;2022-08-03T01:11:09;101266.41;;;20.49;46.81
14757;BME280;62446;53.214;10.398;2022-08-03T01:14:18;101265.56;;;20.49;46.68
14757;BME280;62446;53.214;10.398;2022-08-03T01:17:35;101266.41;;;20.49;47.17
14757;BME280;62446;53.214;10.398;2022-08-03T01:20:43;101270.34;;;20.48;47.12
14757;BME280;62446;53.214;10.398;2022-08-03T01:24:04;101264.75;;;20.48;47.06
14757;BME280;62446;53.214;10.398;2022-08-03T01:27:13;101259.97;;;20.49;47.04
14757;BME280;62446;53.214;10.398;2022-08-03T01:30:22;101261.94;;;20.48;46.98
14757;BME280;62446;53.214;10.398;2022-08-03T01:33:34;101253.53;;;20.48;46.92
14757;BME280;62446;53.214;10.398;2022-08-03T01:36:42;101255.19;;;20.49;46.81
14757;BME280;62446;53.214;10.398;2022-08-03T01:39:48;101264.75;;;20.48;47.16
14757;BME280;62446;53.214;10.398;2022-08-03T01:42:58;101263.06;;;20.47;47.04
14757;BME280;62446;53.214;10.398;2022-08-03T01:46:05;101266.41;;;20.49;46.88
14757;BME280;62446;53.214;10.398;2022-08-03T01:49:11;101263.88;;;20.48;46.79
14757;BME280;62446;53.214;10.398;2022-08-03T01:52:17;101267.84;;;20.47;47.08
14757;BME280;62446;53.214;10.398;2022-08-03T01:55:24;101261.38;;;20.46;47.18
14757;BME280;62446;53.214;10.398;2022-08-03T01:58:31;101255.22;;;20.44;47.05
14757;BME280;62446;53.214;10.398;2022-08-03T02:01:39;101254.09;;;20.45;47.06
14757;BME280;62446;53.214;10.398;2022-08-03T02:05:05;101254.09;;;20.45;47.23
14757;BME280;62446;53.214;10.398;2022-08-03T02:08:13;101260.81;;;20.44;46.95
14757;BME280;62446;53.214;10.398;2022-08-03T02:11:18;101263.59;;;20.44;47.05
14757;BME280;62446;53.214;10.398;2022-08-03T02:14:22;101257.19;;;20.44;47.11
14757;BME280;62446;53.214;10.398;2022-08-03T02:17:28;101253.53;;;20.43;47.03
14757;BME280;62446;53.214;10.398;2022-08-03T02:20:42;101257.19;;;20.44;46.93
14757;BME280;62446;53.214;10.398;2022-08-03T02:23:46;101249.06;;;20.42;47.15
14757;BME280;62446;53.214;10.398;2022-08-03T02:26:52;101247.09;;;20.43;47.48
14757;BME280;62446;53.214;10.398;2022-08-03T02:30:07;101256.31;;;20.43;47.09
14757;BME280;62446;53.214;10.398;2022-08-03T02:33:17;101250.72;;;20.43;47.25
14757;BME280;62446;53.214;10.398;2022-08-03T02:36:24;101237.88;;;20.42;47.37
14757;BME280;62446;53.214;10.398;2022-08-03T02:39:34;101245.13;;;20.43;47.40
14757;BME280;62446;53.214;10.398;2022-08-03T02:42:39;101243.47;;;20.42;46.97
14757;BME280;62446;53.214;10.398;2022-08-03T02:45:47;101247.91;;;20.43;47.45
14757;BME280;62446;53.214;10.398;2022-08-03T02:48:54;101235.91;;;20.43;47.43
14757;BME280;62446;53.214;10.398;2022-08-03T02:52:01;101245.13;;;20.43;47.11
14757;BME280;62446;53.214;10.398;2022-08-03T02:55:14;101242.59;;;20.42;47.02
14757;BME280;62446;53.214;10.398;2022-08-03T02:58:19;101247.38;;;20.41;47.33
14757;BME280;62446;53.214;10.398;2022-08-03T03:01:24;101240.94;;;20.41;47.15
14757;BME280;62446;53.214;10.398;2022-08-03T03:04:31;101240.09;;;20.40;47.07
14757;BME280;62446;53.214;10.398;2022-08-03T03:07:38;101245.69;;;20.40;47.15
14757;BME280;62446;53.214;10.398;2022-08-03T03:10:54;101241.78;;;20.41;47.39
14757;BME280;62446;53.214;10.398;2022-08-03T03:13:59;101232.00;;;20.39;47.20
14757;BME280;62446;53.214;10.398;2022-08-03T03:17:04;101240.09;;;20.40;47.34
14757;BME280;62446;53.214;10.398;2022-08-03T03:20:11;101238.13;;;20.41;47.26
14757;BME280;62446;53.214;10.398;2022-08-03T03:23:16;101240.09;;;20.40;47.53
14757;BME280;62446;53.214;10.398;2022-08-03T03:26:21;101239.28;;;20.40;47.10
14757;BME280;62446;53.214;10.398;2022-08-03T03:29:25;101238.41;;;20.39;47.16
14757;BME280;62446;53.214;10.398;2022-08-03T03:32:29;101245.16;;;20.38;47.33
14757;BME280;62446;53.214;10.398;2022-08-03T03:35:35;101247.97;;;20.38;47.25
14757;BME280;62446;53.214;10.398;2022-08-03T03:38:40;101247.97;;;20.38;47.25
14757;BME280;62446;53.214;10.398;2022-08-03T03:41:45;101240.69;;;20.37;47.27
14757;BME280;62446;53.214;10.398;2022-08-03T03:44:48;101243.47;;;20.37;47.27
14757;BME280;62446;53.214;10.398;2022-08-03T03:47:53;101247.97;;;20.38;47.55
14757;BME280;62446;53.214;10.398;2022-08-03T03:50:59;101244.03;;;20.39;47.43
14757;BME280;62446;53.214;10.398;2022-08-03T03:54:04;101243.47;;;20.37;47.24
14757;BME280;62446;53.214;10.398;2022-08-03T03:57:09;101247.09;;;20.38;47.39
14757;BME280;62446;53.214;10.398;2022-08-03T04:00:16;101244.59;;;20.36;47.35
14757;BME280;62446;53.214;10.398;2022-08-03T04:03:21;101240.69;;;20.37;47.45
14757;BME280;62446;53.214;10.398;2022-08-03T04:06:26;101248.53;;;20.35;47.13
14757;BME280;62446;53.214;10.398;2022-08-03T04:09:48;101245.75;;;20.35;47.49
14757;BME280;62446;53.214;10.398;2022-08-03T04:13:17;101249.38;;;20.36;47.69
14757;BME280;62446;53.214;10.398;2022-08-03T04:16:27;101246.84;;;20.34;47.34
14757;BME280;62446;53.214;10.398;2022-08-03T04:19:36;101244.59;;;20.36;47.53
14757;BME280;62446;53.214;10.398;2022-08-03T04:22:42;101243.22;;;20.33;47.46
14757;BME280;62446;53.214;10.398;2022-08-03T04:25:48;101243.22;;;20.33;47.19
14757;BME280;62446;53.214;10.398;2022-08-03T04:28:54;101254.16;;;20.35;47.62
14757;BME280;62446;53.214;10.398;2022-08-03T04:31:58;101250.78;;;20.33;47.42
14757;BME280;62446;53.214;10.398;2022-08-03T04:35:05;101253.56;;;20.33;47.43
14757;BME280;62446;53.214;10.398;2022-08-03T04:38:13;101255.25;;;20.34;47.69
14757;BME280;62446;53.214;10.398;2022-08-03T04:41:18;101253.03;;;20.31;47.36
14757;BME280;62446;53.214;10.398;2022-08-03T04:44:24;101251.34;;;20.30;47.60
14757;BME280;62446;53.214;10.398;2022-08-03T04:47:32;101256.38;;;20.33;47.52
14757;BME280;62446;53.214;10.398;2022-08-03T04:50:36;101256.38;;;20.33;47.67
14757;BME280;62446;53.214;10.398;2022-08-03T04:53:42;101242.38;;;20.33;47.30
14757;BME280;62446;53.214;10.398;2022-08-03T04:56:46;101246.31;;;20.32;47.40
14757;BME280;62446;53.214;10.398;2022-08-03T04:59:50;101249.13;;;20.32;47.41
14757;BME280;62446;53.214;10.398;2022-08-03T05:03:05;101249.13;;;20.32;47.37
14757;BME280;62446;53.214;10.398;2022-08-03T05:06:26;101253.03;;;20.31;47.37
14757;BME280;62446;53.214;10.398;2022-08-03T05:09:31;101256.66;;;20.31;47.31
14757;BME280;62446;53.214;10.398;2022-08-03T05:12:54;101258.63;;;20.31;47.67
14757;BME280;62446;53.214;10.398;2022-08-03T05:15:57;101247.44;;;20.31;47.50
14757;BME280;62446;53.214;10.398;2022-08-03T05:19:02;101254.97;;;20.30;47.75
14757;BME280;62446;53.214;10.398;2022-08-03T05:22:05;101252.19;;;20.30;47.32
14757;BME280;62446;53.214;10.398;2022-08-03T05:25:11;101258.63;;;20.31;47.71
14757;BME280;62446;53.214;10.398;2022-08-03T05:28:20;101260.56;;;20.30;47.48
14757;BME280;62446;53.214;10.398;2022-08-03T05:31:24;101264.25;;;20.31;47.65
14757;BME280;62446;53.214;10.398;2022-08-03T05:34:28;101258.63;;;20.31;47.56
14757;BME280;62446;53.214;10.398;2022-08-03T05:37:31;101256.13;;;20.29;47.61
14757;BME280;62446;53.214;10.398;2022-08-03T05:40:38;101264.25;;;20.31;47.89
14757;BME280;62446;53.214;10.398;2022-08-03T05:43:58;101258.06;;;20.34;47.48
14757;BME280;62446;53.214;10.398;2022-08-03T05:47:02;101261.69;;;20.40;47.37
14757;BME280;62446;53.214;10.398;2022-08-03T05:50:07;101255.22;;;20.39;47.17
14757;BME280;62446;53.214;10.398;2022-08-03T05:53:11;101262.50;;;20.40;47.15
14757;BME280;62446;53.214;10.398;2022-08-03T05:56:21;101263.63;;;20.39;47.44
14757;BME280;62446;53.214;10.398;2022-08-03T05:59:25;101264.19;;;20.41;46.97
14757;BME280;62446;53.214;10.398;2022-08-03T06:02:40;101260.28;;;20.42;47.05
14757;BME280;62446;53.214;10.398;2022-08-03T06:05:44;101257.72;;;20.41;47.44
14757;BME280;62446;53.214;10.398;2022-08-03T06:09:02;101259.41;;;20.42;47.29
14757;BME280;62446;53.214;10.398;2022-08-03T06:12:07;101271.47;;;20.42;47.08
14757;BME280;62446;53.214;10.398;2022-08-03T06:15:15;101260.00;;;20.39;47.34
14757;BME280;62446;53.214;10.398;2022-08-03T06:18:20;101264.19;;;20.41;47.50
14757;BME280;62446;53.214;10.398;2022-08-03T06:21:25;101260.25;;;20.53;47.18
14757;BME280;62446;53.214;10.398;2022-08-03T06:24:29;101256.25;;;20.64;46.89
14757;BME280;62446;53.214;10.398;2022-08-03T06:27:34;101260.47;;;20.61;46.72
14757;BME280;62446;53.214;10.398;2022-08-03T06:30:41;101266.34;;;20.60;46.88
14757;BME280;62446;53.214;10.398;2022-08-03T06:33:45;101261.91;;;20.54;47.05
14757;BME280;62446;53.214;10.398;2022-08-03T06:37:08;101262.47;;;20.50;47.13
14757;BME280;62446;53.214;10.398;2022-08-03T06:40:14;101264.75;;;20.48;47.44
14757;BME280;62446;53.214;10.398;2022-08-03T06:43:27;101262.47;;;20.50;47.38
14757;BME280;62446;53.214;10.398;2022-08-03T06:46:37;101269.72;;;20.62;46.94
14757;BME280;62446;53.214;10.398;2022-08-03T06:49:41;101259.50;;;21.55;44.89
14757;BME280;62446;53.214;10.398;2022-08-03T06:53:05;101269.78;;;21.89;43.92
14757;BME280;62446;53.214;10.398;2022-08-03T06:56:08;101266.91;;;22.67;42.02
14757;BME280;62446;53.214;10.398;2022-08-03T06:59:14;101266.44;;;22.60;41.91
14757;BME280;62446;53.214;10.398;2022-08-03T07:02:37;101262.59;;;22.51;42.18
14757;BME280;62446;53.214;10.398;2022-08-03T07:05:42;101259.16;;;22.35;42.78
14757;BME280;62446;53.214;10.398;2022-08-03T07:08:48;101266.72;;;22.15;42.91
14757;BME280;62446;53.214;10.398;2022-08-03T07:11:55;101264.47;;;21.93;43.79
14757;BME280;62446;53.214;10.398;2022-08-03T07:15:02;101266.59;;;21.72;44.08
14757;BME280;62446;53.214;10.398;2022-08-03T07:18:07;101268.19;;;21.54;44.87
14757;BME280;62446;53.214;10.398;2022-08-03T07:21:10;101273.66;;;21.40;45.08
14757;BME280;62446;53.214;10.398;2022-08-03T07:24:14;101269.28;;;21.29;45.49
14757;BME280;62446;53.214;10.398;2022-08-03T07:27:18;101270.44;;;21.17;45.79
14757;BME280;62446;53.214;10.398;2022-08-03T07:30:23;101274.44;;;21.11;45.74
14757;BME280;62446;53.214;10.398;2022-08-03T07:33:27;101280.06;;;21.06;45.97
14757;BME280;62446;53.214;10.398;2022-08-03T07:36:31;101270.56;;;21.02;45.87
14757;BME280;62446;53.214;10.398;2022-08-03T07:39:35;101277.91;;;20.98;46.42
14757;BME280;62446;53.214;10.398;2022-08-03T07:42:39;101274.53;;;20.96;46.19
14757;BME280;62446;53.214;10.398;2022-08-03T07:45:44;101279.03;;;20.92;46.50
14757;BME280;62446;53.214;10.398;2022-08-03T07:48:48;101274.88;;;20.89;46.34
14757;BME280;62446;53.214;10.398;2022-08-03T07:51:52;101280.47;;;20.89;46.73
14757;BME280;62446;53.214;10.398;2022-08-03T07:55:09;101279.63;;;20.89;46.87
14757;BME280;62446;53.214;10.398;2022-08-03T07:58:13;101276.81;;;20.89;46.53
14757;BME280;62446;53.214;10.398;2022-08-03T08:01:26;101272.34;;;20.88;46.81
14757;BME280;62446;53.214;10.398;2022-08-03T08:04:30;101281.91;;;20.87;46.83
14757;BME280;62446;53.214;10.398;2022-08-03T08:07:34;101274.59;;;20.85;46.86
14757;BME280;62446;53.214;10.398;2022-08-03T08:10:37;101270.69;;;20.87;46.81
14757;BME280;62446;53.214;10.398;2022-08-03T08:13:41;101265.06;;;20.87;46.81
14757;BME280;62446;53.214;10.398;2022-08-03T08:16:46;101270.69;;;20.87;46.70
14757;BME280;62446;53.214;10.398;2022-08-03T08:19:51;101265.91;;;20.87;46.65
14757;BME280;62446;53.214;10.398;2022-08-03T08:22:55;101265.06;;;20.87;46.91
14757;BME280;62446;53.214;10.398;2022-08-03T08:26:03;101267.88;;;20.87;46.60
14757;BME280;62446;53.214;10.398;2022-08-03T08:29:06;101267.03;;;20.86;46.65
14757;BME280;62446;53.214;10.398;2022-08-03T08:32:11;101263.41;;;20.85;46.88
14757;BME280;62446;53.214;10.398;2022-08-03T08:35:18;101261.72;;;20.84;46.98
14757;BME280;62446;53.214;10.398;2022-08-03T08:38:22;101260.88;;;20.84;46.91
14757;BME280;62446;53.214;10.398;2022-08-03T08:41:26;101265.66;;;20.83;46.96
14757;BME280;62446;53.214;10.398;2022-08-03T08:44:33;101266.50;;;20.84;47.03
14757;BME280;62446;53.214;10.398;2022-08-03T08:47:39;101268.47;;;20.83;46.58
14757;BME280;62446;53.214;10.398;2022-08-03T08:50:53;101268.47;;;20.83;46.74
14757;BME280;62446;53.214;10.398;2022-08-03T08:54:00;101260.06;;;20.83;46.63
14757;BME280;62446;53.214;10.398;2022-08-03T08:57:06;101262.84;;;20.83;46.99
14757;BME280;62446;53.214;10.398;2022-08-03T09:00:30;101268.47;;;20.83;47.10
14757;BME280;62446;53.214;10.398;2022-08-03T09:03:35;101258.38;;;20.82;46.80
14757;BME280;62446;53.214;10.398;2022-08-03T09:06:39;101268.75;;;20.82;47.00
14757;BME280;62446;53.214;10.398;2022-08-03T09:10:00;101269.59;;;20.82;47.18
14757;BME280;62446;53.214;10.398;2022-08-03T09:13:14;101259.19;;;20.83;47.08
14757;BME280;62446;53.214;10.398;2022-08-03T09:16:19;101265.66;;;20.83;46.83
14757;BME280;62446;53.214;10.398;2022-08-03T09:19:25;101266.50;;;20.84;46.82
14757;BME280;62446;53.214;10.398;2022-08-03T09:22:28;101269.28;;;20.84;47.10
14757;BME280;62446;53.214;10.398;2022-08-03T09:25:36;101272.91;;;20.84;46.71
14757;BME280;62446;53.214;10.398;2022-08-03T09:28:41;101273.78;;;20.85;46.72
14757;BME280;62446;53.214;10.398;2022-08-03T09:32:03;101268.19;;;20.85;46.72
14757;BME280;62446;53.214;10.398;2022-08-03T09:35:09;101263.41;;;20.85;47.09
14757;BME280;62446;53.214;10.398;2022-08-03T09:38:14;101260.88;;;20.84;46.99
14757;BME280;62446;53.214;10.398;2022-08-03T09:41:18;101260.06;;;20.83;46.63
14757;BME280;62446;53.214;10.398;2022-08-03T09:44:32;101259.19;;;20.83;46.93
14757;BME280;62446;53.214;10.398;2022-08-03T09:47:37;101262.84;;;20.83;47.18
14757;BME280;62446;53.214;10.398;2022-08-03T09:50:52;101256.09;;;20.84;46.87
14757;BME280;62446;53.214;10.398;2022-08-03T09:54:25;101259.75;;;20.85;46.77
14757;BME280;62446;53.214;10.398;2022-08-03T09:57:29;101247.69;;;20.84;47.06
14757;BME280;62446;53.214;10.398;2022-08-03T10:00:51;101251.06;;;20.87;46.82
14757;BME280;62446;53.214;10.398;2022-08-03T10:03:57;101248.25;;;20.87;46.76
14757;BME280;62446;53.214;10.398;2022-08-03T10:07:08;101240.97;;;20.85;47.15
14757;BME280;62446;53.214;10.398;2022-08-03T10:10:13;101247.69;;;20.84;46.72
14757;BME280;62446;53.214;10.398;2022-08-03T10:13:33;101240.97;;;20.85;47.00
14757;BME280;62446;53.214;10.398;2022-08-03T10:16:39;101246.56;;;20.85;47.22
14757;BME280;62446;53.214;10.398;2022-08-03T10:19:43;101234.53;;;20.85;47.11
14757;BME280;62446;53.214;10.398;2022-08-03T10:22:48;101233.09;;;20.88;46.95
14757;BME280;62446;53.214;10.398;2022-08-03T10:25:54;101233.09;;;20.88;46.87
14757;BME280;62446;53.214;10.398;2022-08-03T10:29:03;101227.50;;;20.88;47.08
14757;BME280;62446;53.214;10.398;2022-08-03T10:32:17;101230.84;;;20.90;47.13
14757;BME280;62446;53.214;10.398;2022-08-03T10:35:24;101235.34;;;20.91;47.15
14757;BME280;62446;53.214;10.398;2022-08-03T10:38:34;101228.59;;;20.92;47.10
14757;BME280;62446;53.214;10.398;2022-08-03T10:41:40;101226.94;;;20.91;46.93
14757;BME280;62446;53.214;10.398;2022-08-03T10:44:52;101230.28;;;20.93;46.76
14757;BME280;62446;53.214;10.398;2022-08-03T10:47:58;101222.16;;;20.91;46.85
14757;BME280;62446;53.214;10.398;2022-08-03T10:51:03;101224.66;;;20.93;47.33
14757;BME280;62446;53.214;10.398;2022-08-03T10:54:38;101215.13;;;20.94;46.77
14757;BME280;62446;53.214;10.398;2022-08-03T10:58:05;101220.75;;;20.94;47.29
14757;BME280;62446;53.214;10.398;2022-08-03T11:01:12;101220.75;;;20.94;47.09
14757;BME280;62446;53.214;10.398;2022-08-03T11:04:17;101219.59;;;20.95;47.13
14757;BME280;62446;53.214;10.398;2022-08-03T11:07:24;101215.13;;;20.94;47.41
14757;BME280;62446;53.214;10.398;2022-08-03T11:10:30;101217.94;;;20.94;47.16
14757;BME280;62446;53.214;10.398;2022-08-03T11:13:34;101219.06;;;20.93;47.21
14757;BME280;62446;53.214;10.398;2022-08-03T11:16:40;101207.84;;;20.93;47.04
14757;BME280;62446;53.214;10.398;2022-08-03T11:19:48;101213.44;;;20.93;47.47
14757;BME280;62446;53.214;10.398;2022-08-03T11:22:59;101207.84;;;20.93;47.52
14757;BME280;62446;53.214;10.398;2022-08-03T11:26:13;101204.75;;;20.94;47.01
14757;BME280;62446;53.214;10.398;2022-08-03T11:29:27;101206.44;;;20.95;46.93
14757;BME280;62446;53.214;10.398;2022-08-03T11:32:51;101210.88;;;20.96;47.48
14757;BME280;62446;53.214;10.398;2022-08-03T11:36:00;101211.69;;;21.02;47.35
14757;BME280;62446;53.214;10.398;2022-08-03T11:39:13;101199.84;;;21.10;47.16
14757;BME280;62446;53.214;10.398;2022-08-03T11:42:47;101207.66;;;21.13;46.86
14757;BME280;62446;53.214;10.398;2022-08-03T11:45:56;101191.13;;;21.17;47.29
14757;BME280;62446;53.214;10.398;2022-08-03T11:49:04;101195.00;;;21.21;47.13
14757;BME280;62446;53.214;10.398;2022-08-03T11:52:12;101198.91;;;21.25;47.15
14757;BME280;62446;53.214;10.398;2022-08-03T11:55:18;101196.88;;;21.31;46.93
14757;BME280;62446;53.214;10.398;2022-08-03T11:58:25;101199.66;;;21.36;47.32
14757;BME280;62446;53.214;10.398;2022-08-03T12:01:49;101189.50;;;21.40;47.23
14757;BME280;62446;53.214;10.398;2022-08-03T12:04:55;101192.25;;;21.45;47.13
14757;BME280;62446;53.214;10.398;2022-08-03T12:08:00;101192.19;;;21.50;47.25
14757;BME280;62446;53.214;10.398;2022-08-03T12:11:10;101192.97;;;21.56;47.26
14757;BME280;62446;53.214;10.398;2022-08-03T12:14:17;101189.84;;;21.63;46.86
14757;BME280;62446;53.214;10.398;2022-08-03T12:17:41;101182.50;;;21.67;46.96
14757;BME280;62446;53.214;10.398;2022-08-03T12:20:46;101183.53;;;21.71;46.88
14757;BME280;62446;53.214;10.398;2022-08-03T12:23:55;101183.50;;;21.76;46.92
14757;BME280;62446;53.214;10.398;2022-08-03T12:27:00;101178.41;;;21.78;46.78
14757;BME280;62446;53.214;10.398;2022-08-03T12:30:06;101167.44;;;21.82;47.25
14757;BME280;62446;53.214;10.398;2022-08-03T12:33:19;101166.00;;;21.84;46.96
14757;BME280;62446;53.214;10.398;2022-08-03T12:36:23;101166.22;;;21.88;47.05
14757;BME280;62446;53.214;10.398;2022-08-03T12:39:27;101172.09;;;21.92;46.76
14757;BME280;62446;53.214;10.398;2022-08-03T12:42:34;101167.06;;;21.88;47.51
14757;BME280;62446;53.214;10.398;2022-08-03T12:45:39;101164.22;;;21.94;47.01
14757;BME280;62446;53.214;10.398;2022-08-03T12:49:00;101169.03;;;21.93;46.53
14757;BME280;62446;53.214;10.398;2022-08-03T12:52:05;101164.84;;;21.91;46.69
14757;BME280;62446;53.214;10.398;2022-08-03T12:55:18;101164.84;;;21.91;47.16
14757;BME280;62446;53.214;10.398;2022-08-03T12:58:32;101158.06;;;21.92;47.28
14757;BME280;62446;53.214;10.398;2022-08-03T13:01:38;101157.78;;;21.93;47.42
14757;BME280;62446;53.214;10.398;2022-08-03T13:04:56;101167.56;;;21.96;47.40
14757;BME280;62446;53.214;10.398;2022-08-03T13:08:01;101161.34;;;21.99;47.06
14757;BME280;62446;53.214;10.398;2022-08-03T13:11:19;101177.59;;;22.02;47.43
14757;BME280;62446;53.214;10.398;2022-08-03T13:14:22;101171.38;;;22.05;47.56
14757;BME280;62446;53.214;10.398;2022-08-03T13:17:28;101159.56;;;22.08;47.34
14757;BME280;62446;53.214;10.398;2022-08-03T13:20:31;101166.81;;;22.09;47.41
14757;BME280;62446;53.214;10.398;2022-08-03T13:23:36;101156.13;;;22.11;47.22
14757;BME280;62446;53.214;10.398;2022-08-03T13:26:40;101167.88;;;22.13;47.38
14757;BME280;62446;53.214;10.398;2022-08-03T13:29:43;101160.00;;;22.15;47.37
14757;BME280;62446;53.214;10.398;2022-08-03T13:32:49;101157.72;;;22.17;47.36
14757;BME280;62446;53.214;10.398;2022-08-03T13:35:52;101153.78;;;22.18;47.61
14757;BME280;62446;53.214;10.398;2022-08-03T13:38:56;101152.34;;;22.21;47.56
14757;BME280;62446;53.214;10.398;2022-08-03T13:42:00;101148.09;;;22.23;47.61
14757;BME280;62446;53.214;10.398;2022-08-03T13:45:05;101148.63;;;22.26;47.64
14757;BME280;62446;53.214;10.398;2022-08-03T13:48:11;101151.97;;;22.28;47.51
14757;BME280;62446;53.214;10.398;2022-08-03T13:51:35;101154.16;;;22.31;47.74
14757;BME280;62446;53.214;10.398;2022-08-03T13:54:39;101144.59;;;22.32;47.30
14757;BME280;62446;53.214;10.398;2022-08-03T13:57:48;101140.38;;;22.34;47.63
14757;BME280;62446;53.214;10.398;2022-08-03T14:01:08;101142.00;;;22.35;47.56
14757;BME280;62446;53.214;10.398;2022-08-03T14:04:13;101133.28;;;22.37;47.90
14757;BME280;62446;53.214;10.398;2022-08-03T14:07:23;101144.50;;;22.37;47.90
14757;BME280;62446;53.214;10.398;2022-08-03T14:10:27;101136.94;;;22.37;47.68
14757;BME280;62446;53.214;10.398;2022-08-03T14:13:31;101146.19;;;22.38;48.09
14757;BME280;62446;53.214;10.398;2022-08-03T14:16:35;101137.25;;;22.36;47.70
14757;BME280;62446;53.214;10.398;2022-08-03T14:19:43;101133.28;;;22.37;47.78
14757;BME280;62446;53.214;10.398;2022-08-03T14:22:55;101141.41;;;22.38;47.66
14757;BME280;62446;53.214;10.398;2022-08-03T14:25:59;101131.84;;;22.39;47.67
14757;BME280;62446;53.214;10.398;2022-08-03T14:29:03;101129.88;;;22.40;47.60
14757;BME280;62446;53.214;10.398;2022-08-03T14:32:07;101128.72;;;22.41;47.62
14757;BME280;62446;53.214;10.398;2022-08-03T14:35:16;101128.13;;;22.44;47.80
14757;BME280;62446;53.214;10.398;2022-08-03T14:38:20;101121.88;;;22.47;47.85
14757;BME280;62446;53.214;10.398;2022-08-03T14:41:24;101123.56;;;22.48;47.68
14757;BME280;62446;53.214;10.398;2022-08-03T14:44:28;101116.50;;;22.51;47.78
14757;BME280;62446;53.214;10.398;2022-08-03T14:47:32;101123.50;;;22.53;47.76
14757;BME280;62446;53.214;10.398;2022-08-03T14:50:57;101111.63;;;22.56;47.71
14757;BME280;62446;53.214;10.398;2022-08-03T14:54:01;101115.81;;;22.59;47.67
14757;BME280;62446;53.214;10.398;2022-08-03T14:57:05;101116.38;;;22.61;47.50
14757;BME280;62446;53.214;10.398;2022-08-03T15:00:11;101113.25;;;22.63;47.51
14757;BME280;62446;53.214;10.398;2022-08-03T15:03:15;101117.72;;;22.64;47.67
14757;BME280;62446;53.214;10.398;2022-08-03T15:06:23;101107.63;;;22.63;47.73
14757;BME280;62446;53.214;10.398;2022-08-03T15:09:27;101119.69;;;22.63;48.18
14757;BME280;62446;53.214;10.398;2022-08-03T15:12:31;101112.13;;;22.64;48.00
14757;BME280;62446;53.214;10.398;2022-08-03T15:15:35;101109.81;;;22.66;47.97
14757;BME280;62446;53.214;10.398;2022-08-03T15:18:38;101115.97;;;22.68;47.58
14757;BME280;62446;53.214;10.398;2022-08-03T15:21:43;101114.00;;;22.68;47.75
14757;BME280;62446;53.214;10.398;2022-08-03T15:24:49;101110.38;;;22.68;47.61
14757;BME280;62446;53.214;10.398;2022-08-03T15:27:53;101106.38;;;22.69;48.06
14757;BME280;62446;53.214;10.398;2022-08-03T15:31:05;101109.44;;;22.72;47.98
14757;BME280;62446;53.214;10.398;2022-08-03T15:34:09;101109.44;;;22.72;48.22
14757;BME280;62446;53.214;10.398;2022-08-03T15:37:15;101103.81;;;22.72;48.01
14757;BME280;62446;53.214;10.398;2022-08-03T15:40:19;101102.44;;;22.70;48.02
14757;BME280;62446;53.214;10.398;2022-08-03T15:43:23;101108.88;;;22.70;48.58
14757;BME280;62446;53.214;10.398;2022-08-03T15:46:27;101107.44;;;22.73;48.14
14757;BME280;62446;53.214;10.398;2022-08-03T15:49:31;101105.16;;;22.75;48.04
14757;BME280;62446;53.214;10.398;2022-08-03T15:52:37;101102.03;;;22.76;47.97
14757;BME280;62446;53.214;10.398;2022-08-03T15:55:40;101103.41;;;22.79;48.02
14757;BME280;62446;53.214;10.398;2022-08-03T15:58:45;101101.97;;;22.82;47.79
14757;BME280;62446;53.214;10.398;2022-08-03T16:02:09;101096.84;;;22.84;47.84
14757;BME280;62446;53.214;10.398;2022-08-03T16:05:13;101098.53;;;22.85;47.60
14757;BME280;62446;53.214;10.398;2022-08-03T16:08:18;101095.09;;;22.88;47.78
14757;BME280;62446;53.214;10.398;2022-08-03T16:11:22;101090.84;;;22.90;47.95